createdAt,value
2018-02-18T00:01:38.688Z,94232.49
2018-02-18T00:04:06.383Z,94235.22
2018-02-18T00:06:34.096Z,94233.45
2018-02-18T00:09:01.798Z,94242.81
2018-02-18T00:11:29.531Z,94247.51
2018-02-18T00:13:57.257Z,94256.14
2018-02-18T00:16:25.012Z,94261.59
2018-02-18T00:18:52.667Z,94262.55
2018-02-18T00:21:20.383Z,94260.95
2018-02-18T00:23:48.075Z,94266.55
2018-02-18T00:26:15.773Z,94268.80
2018-02-18T00:28:43.517Z,94276.24
2018-02-18T00:31:11.196Z,94274.76
2018-02-18T00:33:38.927Z,94276.48
2018-02-18T00:36:06.612Z,94277.32
2018-02-18T00:38:34.340Z,94277.75
2018-02-18T00:41:02.008Z,94286.72
2018-02-18T00:43:29.757Z,94283.72
2018-02-18T00:45:57.503Z,94286.28
2018-02-18T00:48:25.216Z,94293.65
2018-02-18T00:50:52.996Z,94297.33
2018-02-18T00:53:20.705Z,94298.94
2018-02-18T00:55:48.467Z,94299.17
2018-02-18T00:58:16.269Z,94297.73
2018-02-18T01:00:44.011Z,94302.38
2018-02-18T01:03:11.692Z,94309.98
2018-02-18T01:05:39.403Z,94308.63
2018-02-18T01:08:07.085Z,94302.70
2018-02-18T01:10:34.804Z,94303.02
2018-02-18T01:13:02.564Z,94308.30
2018-02-18T01:15:30.255Z,94314.16
2018-02-18T01:17:57.938Z,94313.58
2018-02-18T01:20:25.650Z,94316.30
2018-02-18T01:22:53.357Z,94322.00
2018-02-18T01:25:21.075Z,94327.35
2018-02-18T01:27:48.785Z,94325.11
2018-02-18T01:30:16.549Z,94323.27
2018-02-18T01:32:44.267Z,94328.39
2018-02-18T01:35:11.957Z,94334.23
2018-02-18T01:37:39.678Z,94335.53
2018-02-18T01:40:07.350Z,94337.77
2018-02-18T01:42:35.077Z,94335.61
2018-02-18T01:45:02.779Z,94344.08
2018-02-18T01:47:30.561Z,94343.69
2018-02-18T01:49:58.302Z,94350.09
2018-02-18T01:52:26.176Z,94352.16
2018-02-18T01:54:53.943Z,94357.77
2018-02-18T01:57:21.598Z,94365.45
2018-02-18T01:59:49.254Z,94368.65
2018-02-18T02:02:16.986Z,94369.45
2018-02-18T02:04:44.771Z,94373.77
2018-02-18T02:07:12.468Z,94376.64
2018-02-18T02:09:40.115Z,94374.72
2018-02-18T02:12:07.838Z,94377.69
2018-02-18T02:14:35.503Z,94384.14
2018-02-18T02:17:03.227Z,94385.28
2018-02-18T02:19:31.004Z,94386.97
2018-02-18T02:21:58.668Z,94380.98
2018-02-18T02:24:26.413Z,94390.91
2018-02-18T02:26:54.134Z,94398.13
2018-02-18T02:29:21.837Z,94398.84
2018-02-18T02:31:49.586Z,94408.91
2018-02-18T02:34:17.729Z,94413.25
2018-02-18T02:36:45.627Z,94409.33
2018-02-18T02:39:13.291Z,94413.76
2018-02-18T02:41:41.076Z,94410.09
2018-02-18T02:44:08.823Z,94409.10
2018-02-18T02:46:36.490Z,94413.98
2018-02-18T02:49:04.191Z,94417.50
2018-02-18T02:51:31.911Z,94416.84
2018-02-18T02:53:59.615Z,94429.37
2018-02-18T02:56:27.329Z,94436.20
2018-02-18T02:58:55.025Z,94441.73
2018-02-18T03:01:22.761Z,94447.48
2018-02-18T03:03:50.443Z,94443.73
2018-02-18T03:06:18.100Z,94450.13
2018-02-18T03:08:45.812Z,94452.28
2018-02-18T03:11:13.487Z,94453.09
2018-02-18T03:13:41.209Z,94450.55
2018-02-18T03:16:08.925Z,94455.16
2018-02-18T03:18:36.630Z,94457.73
2018-02-18T03:21:04.287Z,94457.74
2018-02-18T03:23:32.025Z,94465.50
2018-02-18T03:25:59.693Z,94465.32
2018-02-18T03:28:27.430Z,94453.36
2018-02-18T03:30:55.160Z,94468.70
2018-02-18T03:33:22.882Z,94471.59
2018-02-18T03:35:50.564Z,94478.88
2018-02-18T03:38:18.350Z,94486.36
2018-02-18T03:40:46.073Z,94490.77
2018-02-18T03:43:13.787Z,94495.24
2018-02-18T03:45:41.499Z,94494.29
2018-02-18T03:48:09.183Z,94493.88
2018-02-18T03:50:36.906Z,94498.65
2018-02-18T03:53:04.562Z,94497.34
2018-02-18T03:55:32.268Z,94488.14
2018-02-18T03:57:59.975Z,94495.66
2018-02-18T04:00:28.241Z,94507.92
2018-02-18T04:02:55.953Z,94518.09
2018-02-18T04:05:23.618Z,94524.70
2018-02-18T04:07:51.351Z,94525.00
2018-02-18T04:10:19.079Z,94531.29
2018-02-18T04:12:46.808Z,94532.67
2018-02-18T04:15:14.541Z,94542.47
2018-02-18T04:17:42.202Z,94555.47
2018-02-18T04:20:09.945Z,94562.82
2018-02-18T04:22:37.595Z,94575.34
2018-02-18T04:25:05.337Z,94581.81
2018-02-18T04:27:33.069Z,94587.11
2018-02-18T04:30:00.725Z,94591.56
2018-02-18T04:32:28.442Z,94597.92
2018-02-18T04:34:56.103Z,94600.55
2018-02-18T04:37:23.848Z,94594.12
2018-02-18T04:39:51.516Z,94596.86
2018-02-18T04:42:19.192Z,94596.90
2018-02-18T04:44:46.908Z,94604.39
2018-02-18T04:47:14.801Z,94598.69
2018-02-18T04:49:42.507Z,94603.52
2018-02-18T04:52:10.197Z,94607.02
2018-02-18T04:54:37.913Z,94610.27
2018-02-18T04:57:05.639Z,94612.77
2018-02-18T04:59:33.323Z,94614.23
2018-02-18T05:02:01.006Z,94611.23
2018-02-18T05:04:28.743Z,94615.03
2018-02-18T05:06:56.474Z,94609.27
2018-02-18T05:09:24.150Z,94613.19
2018-02-18T05:11:51.883Z,94619.13
2018-02-18T05:14:19.533Z,94627.03
2018-02-18T05:16:47.282Z,94629.20
2018-02-18T05:19:15.067Z,94644.11
2018-02-18T05:21:42.729Z,94641.97
2018-02-18T05:24:10.490Z,94635.23
2018-02-18T05:26:38.204Z,94633.61
2018-02-18T05:29:05.989Z,94644.64
2018-02-18T05:31:33.642Z,94644.73
2018-02-18T05:34:01.380Z,94649.78
2018-02-18T05:36:29.108Z,94656.75
2018-02-18T05:38:56.789Z,94656.07
2018-02-18T05:41:24.538Z,94658.95
2018-02-18T05:43:52.231Z,94670.09
2018-02-18T05:46:19.946Z,94677.11
2018-02-18T05:48:47.677Z,94672.10
2018-02-18T05:51:15.396Z,94674.34
2018-02-18T05:53:43.137Z,94680.00
2018-02-18T05:56:10.784Z,94689.11
2018-02-18T05:58:38.497Z,94695.56
2018-02-18T06:01:06.189Z,94707.52
2018-02-18T06:03:33.910Z,94703.72
2018-02-18T06:06:01.603Z,94711.42
2018-02-18T06:08:29.334Z,94717.34
2018-02-18T06:10:57.031Z,94717.59
2018-02-18T06:13:24.825Z,94717.94
2018-02-18T06:15:52.500Z,94712.75
2018-02-18T06:18:20.215Z,94721.13
2018-02-18T06:20:47.995Z,94715.47
2018-02-18T06:23:15.754Z,94716.89
2018-02-18T06:25:43.491Z,94730.57
2018-02-18T06:28:11.173Z,94729.42
2018-02-18T06:30:38.903Z,94734.14
2018-02-18T06:33:06.606Z,94728.92
2018-02-18T06:35:34.341Z,94731.12
2018-02-18T06:38:02.205Z,94725.78
2018-02-18T06:40:29.901Z,94725.52
2018-02-18T06:42:57.683Z,94729.56
2018-02-18T06:45:25.406Z,94722.34
2018-02-18T06:47:53.096Z,94727.95
2018-02-18T06:50:20.840Z,94738.73
2018-02-18T06:52:48.540Z,94723.33
2018-02-18T06:55:16.290Z,94726.60
2018-02-18T06:57:44.046Z,94726.12
2018-02-18T07:00:11.808Z,94730.50
2018-02-18T07:02:39.506Z,94734.49
2018-02-18T07:05:07.201Z,94744.44
2018-02-18T07:07:34.916Z,94751.20
2018-02-18T07:10:02.654Z,94753.15
2018-02-18T07:12:32.017Z,94753.73
2018-02-18T07:14:59.764Z,94764.73
2018-02-18T07:17:27.459Z,94766.39
2018-02-18T07:19:55.138Z,94771.13
2018-02-18T07:22:22.941Z,94768.05
2018-02-18T07:24:50.670Z,94762.63
2018-02-18T07:27:18.467Z,94773.77
2018-02-18T07:29:46.182Z,94773.05
2018-02-18T07:32:13.917Z,94776.48
2018-02-18T07:34:41.650Z,94781.00
2018-02-18T07:37:09.451Z,94775.53
2018-02-18T07:39:37.292Z,94778.31
2018-02-18T07:42:05.158Z,94780.11
2018-02-18T07:44:32.930Z,94786.80
2018-02-18T07:47:00.643Z,94783.20
2018-02-18T07:49:28.448Z,94782.95
2018-02-18T07:51:57.035Z,94778.79
2018-02-18T07:54:24.777Z,94778.31
2018-02-18T07:56:52.447Z,94782.64
2018-02-18T07:59:20.188Z,94786.19
2018-02-18T08:01:47.981Z,94776.34
2018-02-18T08:04:15.879Z,94778.94
2018-02-18T08:06:43.604Z,94785.48
2018-02-18T08:09:11.381Z,94785.66
2018-02-18T08:11:39.178Z,94776.71
2018-02-18T08:14:06.931Z,94773.82
2018-02-18T08:16:34.646Z,94773.53
2018-02-18T08:19:02.418Z,94772.53
2018-02-18T08:21:30.343Z,94767.23
2018-02-18T08:23:58.171Z,94765.24
2018-02-18T08:26:25.982Z,94769.16
2018-02-18T08:28:53.763Z,94763.95
2018-02-18T08:31:21.604Z,94775.53
2018-02-18T08:33:50.200Z,94782.14
2018-02-18T08:36:18.019Z,94781.98
2018-02-18T08:38:45.802Z,94784.42
2018-02-18T08:41:13.527Z,94784.06
2018-02-18T08:43:41.378Z,94793.95
2018-02-18T08:46:09.195Z,94787.08
2018-02-18T08:48:36.924Z,94780.14
2018-02-18T08:51:04.690Z,94796.20
2018-02-18T08:53:32.407Z,94803.63
2018-02-18T08:56:00.221Z,94807.59
2018-02-18T08:58:27.933Z,94799.37
2018-02-18T09:00:55.870Z,94804.73
2018-02-18T09:03:23.599Z,94814.08
2018-02-18T09:05:51.419Z,94819.93
2018-02-18T09:08:19.115Z,94815.70
2018-02-18T09:10:46.865Z,94813.00
2018-02-18T09:13:14.640Z,94811.61
2018-02-18T09:15:42.382Z,94810.39
2018-02-18T09:18:10.185Z,94804.97
2018-02-18T09:20:38.987Z,94798.28
2018-02-18T09:23:06.782Z,94801.34
2018-02-18T09:25:34.633Z,94799.03
2018-02-18T09:28:02.409Z,94803.39
2018-02-18T09:30:30.424Z,94798.62
2018-02-18T09:32:58.212Z,94795.09
2018-02-18T09:35:26.100Z,94797.67
2018-02-18T09:37:53.839Z,94794.27
2018-02-18T09:40:21.694Z,94799.28
2018-02-18T09:42:49.445Z,94798.17
2018-02-18T09:45:17.260Z,94802.17
2018-02-18T09:47:45.091Z,94808.43
2018-02-18T09:50:14.081Z,94812.38
2018-02-18T09:52:43.265Z,94813.18
2018-02-18T09:55:13.027Z,94816.63
2018-02-18T09:57:40.807Z,94814.31
2018-02-18T10:00:08.588Z,94819.84
2018-02-18T10:02:36.824Z,94826.69
2018-02-18T10:05:04.957Z,94836.75
2018-02-18T10:07:33.013Z,94827.48
2018-02-18T10:10:00.941Z,94826.99
2018-02-18T10:12:28.851Z,94834.02
2018-02-18T10:14:56.680Z,94834.76
2018-02-18T10:17:24.440Z,94833.00
2018-02-18T10:19:53.314Z,94840.05
2018-02-18T10:22:21.801Z,94841.89
2018-02-18T10:24:49.596Z,94844.10
2018-02-18T10:27:17.598Z,94844.26
2018-02-18T10:29:45.393Z,94839.53
2018-02-18T10:32:13.666Z,94850.13
2018-02-18T10:34:42.735Z,94852.20
2018-02-18T10:37:12.380Z,94858.47
2018-02-18T10:39:40.749Z,94858.63
2018-02-18T10:42:08.531Z,94851.98
2018-02-18T10:44:36.300Z,94857.41
2018-02-18T10:47:04.068Z,94856.37
2018-02-18T10:49:31.887Z,94848.80
2018-02-18T10:51:59.583Z,94841.86
2018-02-18T10:54:27.860Z,94839.73
2018-02-18T10:56:55.643Z,94828.50
2018-02-18T10:59:24.308Z,94823.55
2018-02-18T11:01:53.590Z,94826.40
2018-02-18T11:04:21.298Z,94816.20
2018-02-18T11:06:49.053Z,94817.11
2018-02-18T11:09:16.803Z,94824.11
2018-02-18T11:11:44.627Z,94823.45
2018-02-18T11:14:12.360Z,94822.80
2018-02-18T11:16:40.279Z,94824.74
2018-02-18T11:19:08.175Z,94824.25
2018-02-18T11:21:35.882Z,94819.91
2018-02-18T11:24:03.670Z,94821.08
2018-02-18T11:26:31.397Z,94822.32
2018-02-18T11:28:59.169Z,94815.97
2018-02-18T11:31:26.889Z,94811.66
2018-02-18T11:33:54.579Z,94810.70
2018-02-18T11:36:22.360Z,94815.34
2018-02-18T11:38:50.139Z,94817.73
2018-02-18T11:41:17.883Z,94814.06
2018-02-18T11:43:45.646Z,94807.50
2018-02-18T11:46:13.868Z,94805.97
2018-02-18T11:48:41.696Z,94800.20
2018-02-18T11:51:09.467Z,94805.31
2018-02-18T11:53:37.298Z,94799.60
2018-02-18T11:56:05.117Z,94789.23
2018-02-18T11:58:33.596Z,94794.03
2018-02-18T12:01:01.636Z,94788.41
2018-02-18T12:03:30.526Z,94794.34
2018-02-18T12:05:59.128Z,94792.65
2018-02-18T12:08:27.256Z,94786.52
2018-02-18T12:10:54.983Z,94788.04
2018-02-18T12:13:22.832Z,94787.00
2018-02-18T12:15:50.631Z,94779.25
2018-02-18T12:18:18.394Z,94777.06
2018-02-18T12:20:46.291Z,94775.45
2018-02-18T12:23:14.298Z,94776.85
2018-02-18T12:25:46.121Z,94779.56
2018-02-18T12:28:13.962Z,94776.64
2018-02-18T12:30:42.145Z,94772.13
2018-02-18T12:33:10.753Z,94774.75
2018-02-18T12:35:38.609Z,94775.27
2018-02-18T12:38:06.997Z,94776.77
2018-02-18T12:40:34.806Z,94763.38
2018-02-18T12:43:02.680Z,94770.17
2018-02-18T12:45:30.468Z,94764.85
2018-02-18T12:47:58.265Z,94761.92
2018-02-18T12:50:26.060Z,94765.09
2018-02-18T12:52:53.752Z,94759.00
2018-02-18T12:55:21.574Z,94766.05
2018-02-18T12:57:49.622Z,94765.38
2018-02-18T13:00:17.919Z,94763.16
2018-02-18T13:02:45.688Z,94766.98
2018-02-18T13:05:13.591Z,94764.81
2018-02-18T13:07:41.727Z,94755.86
2018-02-18T13:10:09.667Z,94760.41
2018-02-18T13:12:37.461Z,94750.72
2018-02-18T13:15:05.497Z,94749.84
2018-02-18T13:17:34.197Z,94753.77
2018-02-18T13:20:02.227Z,94754.25
2018-02-18T13:22:30.225Z,94756.11
2018-02-18T13:24:58.406Z,94745.81
2018-02-18T13:27:26.472Z,94751.13
2018-02-18T13:29:54.251Z,94754.83
2018-02-18T13:32:22.095Z,94757.70
2018-02-18T13:34:50.069Z,94750.55
2018-02-18T13:37:17.869Z,94762.92
2018-02-18T13:39:46.557Z,94759.70
2018-02-18T13:42:14.345Z,94763.33
2018-02-18T13:44:42.100Z,94746.52
2018-02-18T13:47:09.887Z,94763.09
2018-02-18T13:49:37.739Z,94760.60
2018-02-18T13:52:05.497Z,94769.03
2018-02-18T13:54:34.125Z,94765.34
2018-02-18T13:57:02.050Z,94762.36
2018-02-18T13:59:30.692Z,94768.86
2018-02-18T14:01:59.353Z,94768.12
2018-02-18T14:04:27.881Z,94768.84
2018-02-18T14:06:55.592Z,94773.50
2018-02-18T14:09:23.354Z,94771.25
2018-02-18T14:11:51.141Z,94775.34
2018-02-18T14:14:18.885Z,94769.24
2018-02-18T14:16:46.722Z,94770.61
2018-02-18T14:19:14.567Z,94777.33
2018-02-18T14:21:42.319Z,94775.58
2018-02-18T14:24:10.132Z,94765.87
2018-02-18T14:26:37.877Z,94771.81
2018-02-18T14:29:05.698Z,94773.25
2018-02-18T14:31:33.458Z,94770.37
2018-02-18T14:34:02.023Z,94763.05
2018-02-18T14:36:29.786Z,94769.48
2018-02-18T14:38:57.555Z,94777.76
2018-02-18T14:41:37.082Z,94778.77
2018-02-18T14:44:16.614Z,94775.23
2018-02-18T14:46:56.585Z,94770.98
2018-02-18T14:49:36.103Z,94777.56
2018-02-18T14:52:16.172Z,94784.63
2018-02-18T14:55:05.570Z,94783.75
2018-02-18T14:57:36.084Z,94785.52
2018-02-18T15:00:03.894Z,94783.70
2018-02-18T15:02:31.666Z,94784.15
2018-02-18T15:04:59.455Z,94781.61
2018-02-18T15:07:27.218Z,94785.30
2018-02-18T15:09:56.913Z,94789.55
2018-02-18T15:12:26.201Z,94788.53
2018-02-18T15:14:55.128Z,94786.50
2018-02-18T15:17:22.998Z,94783.55
2018-02-18T15:19:53.668Z,94789.66
2018-02-18T15:22:22.379Z,94786.12
2018-02-18T15:24:50.238Z,94791.36
2018-02-18T15:27:18.284Z,94789.41
2018-02-18T15:29:46.165Z,94788.03
2018-02-18T15:32:14.381Z,94786.59
2018-02-18T15:34:42.720Z,94780.49
2018-02-18T15:37:11.541Z,94781.46
2018-02-18T15:39:40.201Z,94782.83
2018-02-18T15:42:08.970Z,94795.66
2018-02-18T15:44:37.997Z,94784.05
2018-02-18T15:47:06.268Z,94786.92
2018-02-18T15:49:34.468Z,94789.16
2018-02-18T15:52:03.646Z,94791.16
2018-02-18T15:54:31.588Z,94793.00
2018-02-18T15:56:59.552Z,94796.61
2018-02-18T15:59:27.607Z,94794.12
2018-02-18T16:01:55.814Z,94787.75
2018-02-18T16:04:23.718Z,94789.91
2018-02-18T16:06:52.849Z,94788.15
2018-02-18T16:09:20.876Z,94794.95
2018-02-18T16:11:49.268Z,94793.88
2018-02-18T16:14:17.773Z,94805.25
2018-02-18T16:16:46.256Z,94800.95
2018-02-18T16:19:15.138Z,94804.47
2018-02-18T16:21:43.063Z,94805.22
2018-02-18T16:24:13.251Z,94815.86
2018-02-18T16:26:43.010Z,94817.77
2018-02-18T16:29:11.090Z,94811.63
2018-02-18T16:31:40.518Z,94813.14
2018-02-18T16:34:10.821Z,94809.13
2018-02-18T16:36:39.472Z,94815.23
2018-02-18T16:39:08.353Z,94808.24
2018-02-18T16:41:37.334Z,94808.55
2018-02-18T16:44:05.606Z,94809.69
2018-02-18T16:46:33.791Z,94810.97
2018-02-18T16:49:02.053Z,94807.84
2018-02-18T16:51:30.726Z,94813.08
2018-02-18T16:53:59.687Z,94813.84
2018-02-18T16:56:27.544Z,94817.44
2018-02-18T16:58:55.553Z,94812.83
2018-02-18T17:01:24.003Z,94818.50
2018-02-18T17:03:52.122Z,94819.13
2018-02-18T17:06:22.674Z,94820.14
2018-02-18T17:08:51.333Z,94821.27
2018-02-18T17:11:19.095Z,94823.03
2018-02-18T17:13:47.777Z,94819.84
2018-02-18T17:16:15.498Z,94821.73
2018-02-18T17:18:43.525Z,94821.52
2018-02-18T17:21:11.328Z,94828.20
2018-02-18T17:23:40.505Z,94831.77
2018-02-18T17:26:08.550Z,94832.92
2018-02-18T17:28:59.702Z,94836.03
2018-02-18T17:31:30.237Z,94833.52
2018-02-18T17:33:58.617Z,94839.97
2018-02-18T17:36:27.865Z,94837.09
2018-02-18T17:38:56.480Z,94837.16
2018-02-18T17:41:26.198Z,94837.36
2018-02-18T17:43:54.424Z,94838.22
2018-02-18T17:46:22.363Z,94838.19
2018-02-18T17:48:51.453Z,94840.86
2018-02-18T17:51:19.812Z,94838.65
2018-02-18T17:53:48.489Z,94838.61
2018-02-18T17:56:16.479Z,94836.26
2018-02-18T17:58:44.634Z,94841.33
2018-02-18T18:01:12.571Z,94836.97
2018-02-18T18:03:40.731Z,94838.25
2018-02-18T18:06:10.150Z,94830.31
2018-02-18T18:08:38.284Z,94827.34
2018-02-18T18:11:07.103Z,94827.59
2018-02-18T18:13:35.161Z,94820.98
2018-02-18T18:16:02.907Z,94829.69
2018-02-18T18:18:30.679Z,94824.53
2018-02-18T18:20:58.382Z,94825.80
2018-02-18T18:23:26.155Z,94822.00
2018-02-18T18:25:54.096Z,94817.28
2018-02-18T18:28:22.388Z,94818.47
2018-02-18T18:30:50.492Z,94820.01
2018-02-18T18:33:18.454Z,94823.71
2018-02-18T18:35:46.236Z,94821.95
2018-02-18T18:38:14.020Z,94815.92
2018-02-18T18:40:42.018Z,94814.91
2018-02-18T18:43:09.830Z,94815.38
2018-02-18T18:45:37.643Z,94821.95
2018-02-18T18:48:05.865Z,94820.47
2018-02-18T18:50:33.709Z,94824.50
2018-02-18T18:53:01.848Z,94822.49
2018-02-18T18:55:29.770Z,94823.64
2018-02-18T18:57:57.718Z,94825.58
2018-02-18T19:02:59.726Z,94829.61
2018-02-18T19:05:27.557Z,94826.58
2018-02-18T19:07:55.450Z,94828.05
2018-02-18T19:10:23.500Z,94822.50
2018-02-18T19:12:51.314Z,94819.92
2018-02-18T19:15:19.168Z,94820.13
2018-02-18T19:17:48.867Z,94818.37
2018-02-18T19:20:16.672Z,94817.07
2018-02-18T19:22:44.517Z,94814.14
2018-02-18T19:25:12.483Z,94804.64
2018-02-18T19:27:40.333Z,94808.06
2018-02-18T19:30:08.336Z,94805.52
2018-02-18T19:32:36.181Z,94803.56
2018-02-18T19:35:04.854Z,94803.53
2018-02-18T19:37:32.879Z,94804.61
2018-02-18T19:40:02.767Z,94794.13
2018-02-18T19:42:30.642Z,94802.99
2018-02-18T19:44:58.468Z,94806.95
2018-02-18T19:47:26.392Z,94806.64
2018-02-18T19:49:55.786Z,94812.14
2018-02-18T19:52:26.846Z,94810.66
2018-02-18T19:55:00.223Z,94809.05
2018-02-18T19:57:28.047Z,94812.75
2018-02-18T19:59:57.087Z,94804.30
2018-02-18T20:02:25.225Z,94805.95
2018-02-18T20:04:53.248Z,94808.04
2018-02-18T20:07:22.149Z,94807.84
2018-02-18T20:09:50.158Z,94803.96
2018-02-18T20:12:18.168Z,94802.14
2018-02-18T20:14:45.970Z,94803.25
2018-02-18T20:17:15.266Z,94802.19
2018-02-18T20:19:43.347Z,94801.72
2018-02-18T20:22:11.710Z,94801.04
2018-02-18T20:24:40.097Z,94800.11
2018-02-18T20:27:09.211Z,94800.95
2018-02-18T20:29:37.139Z,94794.70
2018-02-18T20:32:05.686Z,94799.86
2018-02-18T20:34:33.920Z,94794.95
2018-02-18T20:37:02.505Z,94797.45
2018-02-18T20:39:30.343Z,94794.68
2018-02-18T20:41:58.401Z,94790.52
2018-02-18T20:44:27.942Z,94800.19
2018-02-18T20:46:56.331Z,94802.13
2018-02-18T20:49:24.378Z,94798.28
2018-02-18T20:51:52.796Z,94795.86
2018-02-18T20:54:20.729Z,94792.07
2018-02-18T20:56:49.022Z,94790.21
2018-02-18T20:59:16.887Z,94789.98
2018-02-18T21:01:44.964Z,94794.59
2018-02-18T21:04:13.081Z,94790.16
2018-02-18T21:06:40.843Z,94786.34
2018-02-18T21:09:08.906Z,94781.18
2018-02-18T21:11:36.702Z,94779.48
2018-02-18T21:14:04.627Z,94780.34
2018-02-18T21:16:32.824Z,94777.55
2018-02-18T21:19:01.306Z,94771.67
2018-02-18T21:21:29.096Z,94768.38
2018-02-18T21:23:56.910Z,94772.73
2018-02-18T21:26:24.786Z,94773.02
2018-02-18T21:28:52.567Z,94765.91
2018-02-18T21:31:20.289Z,94761.69
2018-02-18T21:33:48.288Z,94754.84
2018-02-18T21:36:15.983Z,94757.60
2018-02-18T21:38:44.960Z,94756.91
2018-02-18T21:41:12.912Z,94754.84
2018-02-18T21:43:41.360Z,94745.59
2018-02-18T21:46:09.197Z,94750.99
2018-02-18T21:48:36.875Z,94743.70
2018-02-18T21:51:04.672Z,94745.81
2018-02-18T21:53:32.353Z,94749.37
2018-02-18T21:56:00.187Z,94746.22
2018-02-18T21:58:28.745Z,94749.08
2018-02-18T22:00:56.507Z,94746.28
2018-02-18T22:03:24.407Z,94746.84
2018-02-18T22:05:52.163Z,94743.38
2018-02-18T22:08:22.177Z,94748.05
2018-02-18T22:10:49.909Z,94743.92
2018-02-18T22:13:17.975Z,94738.90
2018-02-18T22:15:45.896Z,94734.09
2018-02-18T22:18:14.347Z,94740.60
2018-02-18T22:20:42.544Z,94734.18
2018-02-18T22:23:12.112Z,94738.45
2018-02-18T22:25:40.139Z,94734.62
2018-02-18T22:28:09.140Z,94735.64
2018-02-18T22:30:37.156Z,94738.52
2018-02-18T22:33:07.863Z,94736.04
2018-02-18T22:35:37.216Z,94739.98
2018-02-18T22:38:05.160Z,94736.04
2018-02-18T22:40:33.822Z,94726.61
2018-02-18T22:43:02.960Z,94729.22
2018-02-18T22:45:32.648Z,94726.48
2018-02-18T22:48:01.613Z,94725.30
2018-02-18T22:50:29.911Z,94727.90
2018-02-18T22:52:58.646Z,94725.63
2018-02-18T22:55:29.667Z,94719.41
2018-02-18T22:57:57.444Z,94726.09
2018-02-18T23:00:25.241Z,94723.80
2018-02-18T23:02:54.304Z,94720.57
2018-02-18T23:05:27.630Z,94722.70
2018-02-18T23:07:55.984Z,94719.88
2018-02-18T23:10:25.388Z,94711.17
2018-02-18T23:12:57.755Z,94709.33
2018-02-18T23:15:27.285Z,94704.84
2018-02-18T23:17:55.830Z,94702.73
2018-02-18T23:20:27.403Z,94694.09
2018-02-18T23:22:56.853Z,94696.08
2018-02-18T23:25:25.866Z,94686.98
2018-02-18T23:28:01.139Z,94685.16
2018-02-18T23:30:30.762Z,94682.80
2018-02-18T23:33:11.644Z,94680.77
2018-02-18T23:35:49.357Z,94675.67
2018-02-18T23:38:22.354Z,94682.85
2018-02-18T23:40:51.321Z,94678.38
2018-02-18T23:43:23.310Z,94676.56
2018-02-18T23:45:51.076Z,94679.45
2018-02-18T23:48:24.183Z,94673.34
2018-02-18T23:51:11.012Z,94669.53
2018-02-18T23:58:26.685Z,94667.25
